CheckWX is a tool to help pilots better visualize weather data.  It is not intended as a substitute for an official pre-flight weather briefing.

08:27:14 UTC

KGNT METAR
Grants-Milan Municipal Airport
Grants, New Mexico, USA
Current

12 mins ago

KGNT 220815Z AUTO 16010KT 10SM BKN041 BKN060 OVC070 00/M06 A2972 RMK AO2 T10011056
Observed
Feb-22 @ 08:15 UTC
Wind
  • 160° at 10 KTS
Visibility
10 SM
Flight Rules
VFR
Cloud Levels
  • Broken at 4,100' AGL
  • Broken at 6,000' AGL
  • Overcast at 7,000' AGL
Temperature
-0°C / 32°F
Dewpoint
-6°C / 21°F
Humidity
64%
Altimeter
29.72" Hg
Pressure
1006.42 hPa
Previous

32 mins ago

KGNT 220755Z AUTO 15010KT 10SM OVC041 00/M06 A2971 RMK AO2 T10011060
Observed
Feb-22 @ 07:55 UTC
Wind
  • 150° at 10 KTS
Visibility
10 SM
Flight Rules
VFR
Cloud Levels
  • Overcast at 4,100' AGL
Temperature
-0°C / 32°F
Dewpoint
-6°C / 21°F
Humidity
64%
Altimeter
29.71" Hg
Pressure
1006.12 hPa
Previous

52 mins ago

KGNT 220735Z AUTO 15010KT 10SM BKN043 BKN048 00/M06 A2971 RMK AO2 T10041061
Observed
Feb-22 @ 07:35 UTC
Wind
  • 150° at 10 KTS
Visibility
10 SM
Flight Rules
VFR
Cloud Levels
  • Broken at 4,300' AGL
  • Broken at 4,800' AGL
Temperature
-0°C / 32°F
Dewpoint
-6°C / 21°F
Humidity
64%
Altimeter
29.71" Hg
Pressure
1006.12 hPa